sensor_id;sensor_type;location;lat;lon;timestamp;pressure;altitude;pressure_sealevel;temperature;humidity
38227;BME280;24026;49.446;8.576;2022-12-17T00:00:41;101003.66;;;9.56;31.79
38227;BME280;24026;49.446;8.576;2022-12-17T00:03:20;101005.50;;;9.56;32.02
38227;BME280;24026;49.446;8.576;2022-12-17T00:05:59;101001.81;;;9.57;31.92
38227;BME280;24026;49.446;8.576;2022-12-17T00:08:38;101007.56;;;9.54;31.73
38227;BME280;24026;49.446;8.576;2022-12-17T00:11:17;101005.94;;;9.53;31.68
38227;BME280;24026;49.446;8.576;2022-12-17T00:13:56;101003.28;;;9.53;31.42
38227;BME280;24026;49.446;8.576;2022-12-17T00:16:35;101008.00;;;9.51;32.04
38227;BME280;24026;49.446;8.576;2022-12-17T00:19:14;101011.69;;;9.50;31.90
38227;BME280;24026;49.446;8.576;2022-12-17T00:21:53;101009.47;;;9.46;31.82
38227;BME280;24026;49.446;8.576;2022-12-17T00:24:32;101008.66;;;9.46;31.95
38227;BME280;24026;49.446;8.576;2022-12-17T00:27:11;101015.56;;;9.47;31.72
38227;BME280;24026;49.446;8.576;2022-12-17T00:29:50;101019.28;;;9.46;31.59
38227;BME280;24026;49.446;8.576;2022-12-17T00:32:28;101005.63;;;9.42;31.79
38227;BME280;24026;49.446;8.576;2022-12-17T00:35:07;101010.31;;;9.40;31.84
38227;BME280;24026;49.446;8.576;2022-12-17T00:37:46;101019.91;;;9.41;31.77
38227;BME280;24026;49.446;8.576;2022-12-17T00:40:25;101022.19;;;9.38;31.81
38227;BME280;24026;49.446;8.576;2022-12-17T00:43:11;101020.78;;;9.35;31.66
38227;BME280;24026;49.446;8.576;2022-12-17T00:45:51;101026.09;;;9.35;31.78
38227;BME280;24026;49.446;8.576;2022-12-17T00:48:30;101027.13;;;9.34;31.61
38227;BME280;24026;49.446;8.576;2022-12-17T00:51:09;101025.50;;;9.33;31.77
38227;BME280;24026;49.446;8.576;2022-12-17T00:53:48;101033.69;;;9.32;31.81
38227;BME280;24026;49.446;8.576;2022-12-17T00:56:27;101028.81;;;9.28;31.74
38227;BME280;24026;49.446;8.576;2022-12-17T00:59:06;101039.19;;;9.30;31.58
38227;BME280;24026;49.446;8.576;2022-12-17T01:01:45;101042.69;;;9.31;31.59
38227;BME280;24026;49.446;8.576;2022-12-17T01:04:24;101041.25;;;9.28;31.42
38227;BME280;24026;49.446;8.576;2022-12-17T01:07:03;101044.34;;;9.25;31.67
38227;BME280;24026;49.446;8.576;2022-12-17T01:09:41;101054.16;;;9.24;31.48
38227;BME280;24026;49.446;8.576;2022-12-17T01:12:20;101059.44;;;9.24;31.61
38227;BME280;24026;49.446;8.576;2022-12-17T01:14:59;101067.63;;;9.23;31.49
38227;BME280;24026;49.446;8.576;2022-12-17T01:17:38;101073.94;;;9.22;31.54
38227;BME280;24026;49.446;8.576;2022-12-17T01:20:34;101067.25;;;9.19;31.60
38227;BME280;24026;49.446;8.576;2022-12-17T01:23:13;101073.34;;;9.20;31.28
38227;BME280;24026;49.446;8.576;2022-12-17T01:25:53;101068.47;;;9.17;31.65
38227;BME280;24026;49.446;8.576;2022-12-17T01:28:32;101067.88;;;9.15;31.15
38227;BME280;24026;49.446;8.576;2022-12-17T01:31:11;101072.19;;;9.16;31.39
38227;BME280;24026;49.446;8.576;2022-12-17T01:33:50;101079.50;;;9.14;31.56
38227;BME280;24026;49.446;8.576;2022-12-17T01:36:29;101079.97;;;9.11;31.53
38227;BME280;24026;49.446;8.576;2022-12-17T01:39:08;101088.94;;;9.09;31.27
38227;BME280;24026;49.446;8.576;2022-12-17T01:41:47;101089.94;;;9.08;31.45
38227;BME280;24026;49.446;8.576;2022-12-17T01:47:17;101096.31;;;9.07;31.50
38227;BME280;24026;49.446;8.576;2022-12-17T01:49:56;101103.44;;;9.07;31.55
38227;BME280;24026;49.446;8.576;2022-12-17T01:52:35;101109.41;;;9.02;31.63
38227;BME280;24026;49.446;8.576;2022-12-17T01:55:14;101111.00;;;9.03;31.49
38227;BME280;24026;49.446;8.576;2022-12-17T01:57:53;101106.75;;;9.02;31.45
38227;BME280;24026;49.446;8.576;2022-12-17T02:00:32;101109.59;;;9.01;31.40
38227;BME280;24026;49.446;8.576;2022-12-17T02:03:16;101106.94;;;9.01;31.39
38227;BME280;24026;49.446;8.576;2022-12-17T02:12:00;101103.91;;;8.97;31.34
38227;BME280;24026;49.446;8.576;2022-12-17T02:14:56;101119.41;;;8.94;31.35
38227;BME280;24026;49.446;8.576;2022-12-17T02:17:42;101121.06;;;8.95;31.47
38227;BME280;24026;49.446;8.576;2022-12-17T02:20:29;101116.75;;;8.94;31.42
38227;BME280;24026;49.446;8.576;2022-12-17T02:26:03;101134.94;;;8.90;31.55
38227;BME280;24026;49.446;8.576;2022-12-17T02:28:48;101137.81;;;8.88;31.47
38227;BME280;24026;49.446;8.576;2022-12-17T02:31:28;101127.41;;;8.87;31.40
38227;BME280;24026;49.446;8.576;2022-12-17T02:34:07;101130.06;;;8.87;31.39
38227;BME280;24026;49.446;8.576;2022-12-17T02:36:46;101132.72;;;8.87;31.27
38227;BME280;24026;49.446;8.576;2022-12-17T02:39:25;101127.03;;;8.83;31.43
38227;BME280;24026;49.446;8.576;2022-12-17T02:42:04;101129.88;;;8.82;31.22
38227;BME280;24026;49.446;8.576;2022-12-17T02:44:43;101136.81;;;8.83;31.13
38227;BME280;24026;49.446;8.576;2022-12-17T02:47:23;101134.59;;;8.80;31.53
38227;BME280;24026;49.446;8.576;2022-12-17T02:50:03;101124.19;;;8.78;31.31
38227;BME280;24026;49.446;8.576;2022-12-17T02:52:45;101135.84;;;8.77;31.40
38227;BME280;24026;49.446;8.576;2022-12-17T02:55:24;101145.59;;;8.77;31.28
38227;BME280;24026;49.446;8.576;2022-12-17T02:58:03;101150.91;;;8.77;31.17
38227;BME280;24026;49.446;8.576;2022-12-17T03:00:42;101156.41;;;8.75;31.29
38227;BME280;24026;49.446;8.576;2022-12-17T03:03:21;101149.50;;;8.74;31.21
38227;BME280;24026;49.446;8.576;2022-12-17T03:06:00;101162.75;;;8.74;31.16
38227;BME280;24026;49.446;8.576;2022-12-17T03:08:39;101160.53;;;8.71;31.22
38227;BME280;24026;49.446;8.576;2022-12-17T03:11:18;101164.81;;;8.72;31.31
38227;BME280;24026;49.446;8.576;2022-12-17T03:13:58;101168.69;;;8.69;31.20
38227;BME280;24026;49.446;8.576;2022-12-17T03:16:37;101176.84;;;8.68;31.08
38227;BME280;24026;49.446;8.576;2022-12-17T03:19:16;101178.91;;;8.66;31.23
38227;BME280;24026;49.446;8.576;2022-12-17T03:21:55;101174.59;;;8.65;31.22
38227;BME280;24026;49.446;8.576;2022-12-17T03:24:34;101166.66;;;8.65;31.19
38227;BME280;24026;49.446;8.576;2022-12-17T03:27:13;101171.56;;;8.61;31.01
38227;BME280;24026;49.446;8.576;2022-12-17T03:29:52;101176.06;;;8.61;31.00
38227;BME280;24026;49.446;8.576;2022-12-17T03:32:31;101176.06;;;8.61;30.92
38227;BME280;24026;49.446;8.576;2022-12-17T03:35:10;101164.88;;;8.59;31.14
38227;BME280;24026;49.446;8.576;2022-12-17T03:37:49;101173.63;;;8.59;31.05
38227;BME280;24026;49.446;8.576;2022-12-17T03:40:28;101173.03;;;8.57;31.28
38227;BME280;24026;49.446;8.576;2022-12-17T03:43:08;101181.78;;;8.58;30.97
38227;BME280;24026;49.446;8.576;2022-12-17T03:45:51;101176.88;;;8.55;31.09
38227;BME280;24026;49.446;8.576;2022-12-17T03:48:30;101176.28;;;8.52;31.10
38227;BME280;24026;49.446;8.576;2022-12-17T03:51:09;101178.13;;;8.52;30.99
38227;BME280;24026;49.446;8.576;2022-12-17T03:53:52;101183.63;;;8.50;31.03
38227;BME280;24026;49.446;8.576;2022-12-17T03:56:31;101190.75;;;8.50;31.01
38227;BME280;24026;49.446;8.576;2022-12-17T03:59:10;101186.69;;;8.47;31.10
38227;BME280;24026;49.446;8.576;2022-12-17T04:01:49;101194.84;;;8.46;30.94
38227;BME280;24026;49.446;8.576;2022-12-17T04:04:28;101185.06;;;8.46;31.03
38227;BME280;24026;49.446;8.576;2022-12-17T04:07:07;101184.25;;;8.46;30.79
38227;BME280;24026;49.446;8.576;2022-12-17T04:09:46;101195.88;;;8.45;30.96
38227;BME280;24026;49.446;8.576;2022-12-17T04:12:25;101192.41;;;8.44;30.96
38227;BME280;24026;49.446;8.576;2022-12-17T04:15:04;101197.91;;;8.43;30.98
38227;BME280;24026;49.446;8.576;2022-12-17T04:17:43;101211.34;;;8.41;30.99
38227;BME280;24026;49.446;8.576;2022-12-17T04:20:22;101215.81;;;8.41;30.99
38227;BME280;24026;49.446;8.576;2022-12-17T04:23:01;101209.69;;;8.40;30.99
38227;BME280;24026;49.446;8.576;2022-12-17T04:25:40;101217.63;;;8.40;30.86
38227;BME280;24026;49.446;8.576;2022-12-17T04:28:19;101211.53;;;8.40;30.95
38227;BME280;24026;49.446;8.576;2022-12-17T04:30:58;101214.38;;;8.38;30.95
38227;BME280;24026;49.446;8.576;2022-12-17T04:33:37;101212.97;;;8.35;30.97
38227;BME280;24026;49.446;8.576;2022-12-17T04:36:16;101210.34;;;8.35;30.89
38227;BME280;24026;49.446;8.576;2022-12-17T04:39:12;101230.91;;;8.33;30.50
38227;BME280;24026;49.446;8.576;2022-12-17T04:41:51;101225.84;;;8.32;30.88
38227;BME280;24026;49.446;8.576;2022-12-17T04:44:29;101223.38;;;8.30;30.86
38227;BME280;24026;49.446;8.576;2022-12-17T04:47:08;101226.25;;;8.29;30.81
38227;BME280;24026;49.446;8.576;2022-12-17T04:49:47;101233.56;;;8.27;30.84
38227;BME280;24026;49.446;8.576;2022-12-17T04:52:26;101226.66;;;8.26;30.87
38227;BME280;24026;49.446;8.576;2022-12-17T04:55:05;101227.44;;;8.26;30.73
38227;BME280;24026;49.446;8.576;2022-12-17T04:57:44;101234.00;;;8.24;30.73
38227;BME280;24026;49.446;8.576;2022-12-17T05:00:23;101231.53;;;8.22;30.63
38227;BME280;24026;49.446;8.576;2022-12-17T05:03:09;101235.81;;;8.23;30.76
38227;BME280;24026;49.446;8.576;2022-12-17T05:05:48;101248.63;;;8.20;30.67
38227;BME280;24026;49.446;8.576;2022-12-17T05:08:27;101239.09;;;8.19;30.77
38227;BME280;24026;49.446;8.576;2022-12-17T05:11:06;101245.19;;;8.19;30.82
38227;BME280;24026;49.446;8.576;2022-12-17T05:13:45;101245.38;;;8.18;30.65
38227;BME280;24026;49.446;8.576;2022-12-17T05:16:24;101248.25;;;8.16;30.58
38227;BME280;24026;49.446;8.576;2022-12-17T05:19:03;101249.03;;;8.16;30.59
38227;BME280;24026;49.446;8.576;2022-12-17T05:21:42;101255.59;;;8.14;30.61
38227;BME280;24026;49.446;8.576;2022-12-17T05:24:20;101257.63;;;8.12;30.48
38227;BME280;24026;49.446;8.576;2022-12-17T05:26:59;101264.53;;;8.13;30.49
38227;BME280;24026;49.446;8.576;2022-12-17T05:29:58;101267.59;;;8.10;30.44
38227;BME280;24026;49.446;8.576;2022-12-17T05:32:37;101270.22;;;8.10;30.38
38227;BME280;24026;49.446;8.576;2022-12-17T05:35:16;101273.09;;;8.08;30.40
38227;BME280;24026;49.446;8.576;2022-12-17T05:38:02;101280.22;;;8.08;30.40
38227;BME280;24026;49.446;8.576;2022-12-17T05:40:41;101280.41;;;8.06;30.47
38227;BME280;24026;49.446;8.576;2022-12-17T05:43:20;101286.94;;;8.04;30.37
38227;BME280;24026;49.446;8.576;2022-12-17T05:45:59;101275.53;;;8.03;30.38
38227;BME280;24026;49.446;8.576;2022-12-17T05:48:37;101281.66;;;8.04;30.43
38227;BME280;24026;49.446;8.576;2022-12-17T05:51:17;101289.59;;;8.04;30.04
38227;BME280;24026;49.446;8.576;2022-12-17T05:53:55;101291.59;;;8.02;30.38
38227;BME280;24026;49.446;8.576;2022-12-17T05:56:34;101300.78;;;7.99;30.44
38227;BME280;24026;49.446;8.576;2022-12-17T05:59:13;101294.69;;;7.98;30.35
38227;BME280;24026;49.446;8.576;2022-12-17T06:01:52;101298.34;;;7.97;30.40
38227;BME280;24026;49.446;8.576;2022-12-17T06:04:31;101301.19;;;7.96;30.23
38227;BME280;24026;49.446;8.576;2022-12-17T06:07:10;101317.06;;;7.96;30.25
38227;BME280;24026;49.446;8.576;2022-12-17T06:09:49;101316.47;;;7.94;30.25
38227;BME280;24026;49.446;8.576;2022-12-17T06:12:28;101325.41;;;7.93;30.37
38227;BME280;24026;49.446;8.576;2022-12-17T06:15:07;101319.31;;;7.92;30.38
38227;BME280;24026;49.446;8.576;2022-12-17T06:17:56;101324.59;;;7.92;30.50
38227;BME280;24026;49.446;8.576;2022-12-17T06:20:35;101339.03;;;7.90;30.14
38227;BME280;24026;49.446;8.576;2022-12-17T06:23:14;101340.69;;;7.91;30.25
38227;BME280;24026;49.446;8.576;2022-12-17T06:25:56;101343.53;;;7.89;30.28
38227;BME280;24026;49.446;8.576;2022-12-17T06:28:35;101347.59;;;7.85;30.52
38227;BME280;24026;49.446;8.576;2022-12-17T06:31:16;101350.88;;;7.87;30.33
38227;BME280;24026;49.446;8.576;2022-12-17T06:33:55;101350.66;;;7.89;30.36
38227;BME280;24026;49.446;8.576;2022-12-17T06:36:34;101352.91;;;7.85;30.53
38227;BME280;24026;49.446;8.576;2022-12-17T06:39:13;101354.50;;;7.86;30.47
38227;BME280;24026;49.446;8.576;2022-12-17T06:41:52;101357.16;;;7.86;30.33
38227;BME280;24026;49.446;8.576;2022-12-17T06:44:31;101359.81;;;7.86;30.40
38227;BME280;24026;49.446;8.576;2022-12-17T06:47:10;101362.47;;;7.86;30.37
38227;BME280;24026;49.446;8.576;2022-12-17T06:49:49;101369.78;;;7.84;30.53
38227;BME280;24026;49.446;8.576;2022-12-17T06:52:28;101366.13;;;7.85;30.41
38227;BME280;24026;49.446;8.576;2022-12-17T06:55:07;101371.63;;;7.84;30.48
38227;BME280;24026;49.446;8.576;2022-12-17T06:57:46;101381.38;;;7.83;30.55
38227;BME280;24026;49.446;8.576;2022-12-17T07:00:25;101382.81;;;7.79;30.51
38227;BME280;24026;49.446;8.576;2022-12-17T07:03:04;101386.06;;;7.81;30.44
38227;BME280;24026;49.446;8.576;2022-12-17T07:05:44;101389.50;;;7.82;30.56
38227;BME280;24026;49.446;8.576;2022-12-17T07:08:23;101392.16;;;7.82;30.50
38227;BME280;24026;49.446;8.576;2022-12-17T07:11:02;101390.94;;;7.77;30.53
38227;BME280;24026;49.446;8.576;2022-12-17T07:13:41;101402.53;;;7.76;30.65
38227;BME280;24026;49.446;8.576;2022-12-17T07:16:20;101407.00;;;7.76;30.76
38227;BME280;24026;49.446;8.576;2022-12-17T07:18:58;101421.25;;;7.75;30.65
38227;BME280;24026;49.446;8.576;2022-12-17T07:21:37;101424.75;;;7.75;30.58
38227;BME280;24026;49.446;8.576;2022-12-17T07:24:17;101430.03;;;7.75;30.80
38227;BME280;24026;49.446;8.576;2022-12-17T07:26:57;101433.09;;;7.79;30.74
38227;BME280;24026;49.446;8.576;2022-12-17T07:29:36;101431.06;;;7.81;30.74
38227;BME280;24026;49.446;8.576;2022-12-17T07:32:17;101435.97;;;7.84;30.80
38227;BME280;24026;49.446;8.576;2022-12-17T07:34:58;101441.06;;;7.86;30.74
38227;BME280;24026;49.446;8.576;2022-12-17T07:37:37;101449.22;;;7.91;30.49
38227;BME280;24026;49.446;8.576;2022-12-17T07:40:17;101446.38;;;7.92;31.01
38227;BME280;24026;49.446;8.576;2022-12-17T07:43:10;101449.63;;;7.94;31.06
38227;BME280;24026;49.446;8.576;2022-12-17T07:45:51;101451.91;;;7.97;31.09
38227;BME280;24026;49.446;8.576;2022-12-17T07:48:42;101452.91;;;7.96;30.97
38227;BME280;24026;49.446;8.576;2022-12-17T07:51:21;101463.09;;;8.00;30.94
38227;BME280;24026;49.446;8.576;2022-12-17T07:54:01;101458.84;;;7.98;31.10
38227;BME280;24026;49.446;8.576;2022-12-17T07:56:41;101463.88;;;7.93;31.27
38227;BME280;24026;49.446;8.576;2022-12-17T07:59:20;101461.69;;;7.97;31.25
38227;BME280;24026;49.446;8.576;2022-12-17T08:02:00;101473.28;;;7.96;31.46
38227;BME280;24026;49.446;8.576;2022-12-17T08:04:40;101474.91;;;7.97;31.51
38227;BME280;24026;49.446;8.576;2022-12-17T08:07:21;101470.03;;;8.01;31.63
38227;BME280;24026;49.446;8.576;2022-12-17T08:10:00;101469.00;;;8.02;31.44
38227;BME280;24026;49.446;8.576;2022-12-17T08:12:39;101477.78;;;8.02;31.70
38227;BME280;24026;49.446;8.576;2022-12-17T08:15:19;101481.06;;;8.04;31.71
38227;BME280;24026;49.446;8.576;2022-12-17T08:18:01;101477.41;;;8.05;31.75
38227;BME280;24026;49.446;8.576;2022-12-17T08:20:40;101481.84;;;8.05;31.90
38227;BME280;24026;49.446;8.576;2022-12-17T08:23:20;101490.41;;;8.07;31.85
38227;BME280;24026;49.446;8.576;2022-12-17T08:26:00;101492.66;;;8.10;31.85
38227;BME280;24026;49.446;8.576;2022-12-17T08:28:39;101498.81;;;8.10;32.03
38227;BME280;24026;49.446;8.576;2022-12-17T08:31:22;101509.19;;;8.12;32.03
38227;BME280;24026;49.446;8.576;2022-12-17T08:34:02;101509.19;;;8.12;32.07
38227;BME280;24026;49.446;8.576;2022-12-17T08:36:41;101508.16;;;8.13;32.03
38227;BME280;24026;49.446;8.576;2022-12-17T08:39:20;101518.38;;;8.16;32.10
38227;BME280;24026;49.446;8.576;2022-12-17T08:41:59;101529.56;;;8.18;32.09
38227;BME280;24026;49.446;8.576;2022-12-17T08:44:38;101529.78;;;8.16;32.27
38227;BME280;24026;49.446;8.576;2022-12-17T08:47:17;101532.84;;;8.20;32.21
38227;BME280;24026;49.446;8.576;2022-12-17T08:49:58;101536.31;;;8.21;32.25
38227;BME280;24026;49.446;8.576;2022-12-17T08:52:38;101538.78;;;8.22;32.31
38227;BME280;24026;49.446;8.576;2022-12-17T08:55:18;101536.94;;;8.23;32.43
38227;BME280;24026;49.446;8.576;2022-12-17T08:57:59;101541.63;;;8.21;32.37
38227;BME280;24026;49.446;8.576;2022-12-17T09:00:38;101537.13;;;8.21;32.26
38227;BME280;24026;49.446;8.576;2022-12-17T09:03:17;101544.88;;;8.23;32.61
38227;BME280;24026;49.446;8.576;2022-12-17T09:05:56;101543.25;;;8.22;32.28
38227;BME280;24026;49.446;8.576;2022-12-17T09:08:35;101549.38;;;8.22;32.41
38227;BME280;24026;49.446;8.576;2022-12-17T09:11:14;101549.78;;;8.26;32.63
38227;BME280;24026;49.446;8.576;2022-12-17T09:13:52;101552.44;;;8.26;32.52
38227;BME280;24026;49.446;8.576;2022-12-17T09:16:31;101556.72;;;8.27;32.39
38227;BME280;24026;49.446;8.576;2022-12-17T09:19:10;101555.69;;;8.28;32.57
38227;BME280;24026;49.446;8.576;2022-12-17T09:21:49;101555.69;;;8.28;32.60
38227;BME280;24026;49.446;8.576;2022-12-17T09:24:28;101561.00;;;8.28;32.56
38227;BME280;24026;49.446;8.576;2022-12-17T09:27:07;101566.72;;;8.31;32.64
38227;BME280;24026;49.446;8.576;2022-12-17T09:30:07;101561.81;;;8.28;32.65
38227;BME280;24026;49.446;8.576;2022-12-17T09:32:46;101562.66;;;8.29;32.76
38227;BME280;24026;49.446;8.576;2022-12-17T09:35:26;101562.44;;;8.30;32.65
38227;BME280;24026;49.446;8.576;2022-12-17T09:38:05;101559.81;;;8.30;32.87
38227;BME280;24026;49.446;8.576;2022-12-17T09:40:48;101563.25;;;8.31;32.67
38227;BME280;24026;49.446;8.576;2022-12-17T09:44:04;101564.06;;;8.31;32.65
38227;BME280;24026;49.446;8.576;2022-12-17T09:49:33;101566.94;;;8.37;32.89
38227;BME280;24026;49.446;8.576;2022-12-17T09:52:28;101564.94;;;8.39;32.79
38227;BME280;24026;49.446;8.576;2022-12-17T09:55:32;101570.00;;;8.40;32.68
38227;BME280;24026;49.446;8.576;2022-12-17T09:58:18;101571.03;;;8.39;32.82
38227;BME280;24026;49.446;8.576;2022-12-17T10:01:40;101574.69;;;8.38;33.06
38227;BME280;24026;49.446;8.576;2022-12-17T10:04:15;101574.94;;;8.43;32.72
38227;BME280;24026;49.446;8.576;2022-12-17T10:06:57;101573.50;;;8.41;32.98
38227;BME280;24026;49.446;8.576;2022-12-17T10:09:36;101577.16;;;8.40;32.97
38227;BME280;24026;49.446;8.576;2022-12-17T10:12:18;101573.69;;;8.39;33.09
38227;BME280;24026;49.446;8.576;2022-12-17T10:14:58;101576.34;;;8.39;32.91
38227;BME280;24026;49.446;8.576;2022-12-17T10:17:37;101572.47;;;8.42;32.98
38227;BME280;24026;49.446;8.576;2022-12-17T10:23:32;101588.00;;;8.45;33.19
38227;BME280;24026;49.446;8.576;2022-12-17T10:26:38;101580.66;;;8.47;33.03
38227;BME280;24026;49.446;8.576;2022-12-17T10:29:31;101573.94;;;8.44;33.17
38227;BME280;24026;49.446;8.576;2022-12-17T10:34:52;101583.53;;;8.45;33.26
38227;BME280;24026;49.446;8.576;2022-12-17T10:37:33;101579.03;;;8.46;33.25
38227;BME280;24026;49.446;8.576;2022-12-17T10:40:30;101572.09;;;8.45;33.25
38227;BME280;24026;49.446;8.576;2022-12-17T10:43:31;101586.78;;;8.47;33.31
38227;BME280;24026;49.446;8.576;2022-12-17T10:46:30;101586.41;;;8.50;33.42
38227;BME280;24026;49.446;8.576;2022-12-17T10:49:23;101594.97;;;8.52;33.41
38227;BME280;24026;49.446;8.576;2022-12-17T10:52:29;101603.91;;;8.51;33.38
38227;BME280;24026;49.446;8.576;2022-12-17T10:55:26;101592.72;;;8.49;33.36
38227;BME280;24026;49.446;8.576;2022-12-17T10:58:12;101592.72;;;8.49;33.30
38227;BME280;24026;49.446;8.576;2022-12-17T11:01:01;101592.09;;;8.47;33.12
38227;BME280;24026;49.446;8.576;2022-12-17T11:03:52;101603.31;;;8.49;33.17
38227;BME280;24026;49.446;8.576;2022-12-17T11:06:47;101603.53;;;8.55;33.03
38227;BME280;24026;49.446;8.576;2022-12-17T11:09:44;101607.81;;;8.49;33.14
38227;BME280;24026;49.446;8.576;2022-12-17T11:12:50;101606.75;;;8.43;33.28
38227;BME280;24026;49.446;8.576;2022-12-17T11:15:54;101602.88;;;8.46;33.29
38227;BME280;24026;49.446;8.576;2022-12-17T11:21:51;101616.56;;;8.49;33.41
38227;BME280;24026;49.446;8.576;2022-12-17T11:24:38;101610.66;;;8.54;33.37
38227;BME280;24026;49.446;8.576;2022-12-17T11:27:25;101612.28;;;8.55;33.32
38227;BME280;24026;49.446;8.576;2022-12-17T11:30:14;101611.28;;;8.56;33.32
38227;BME280;24026;49.446;8.576;2022-12-17T11:33:23;101610.28;;;8.57;33.38
38227;BME280;24026;49.446;8.576;2022-12-17T11:36:14;101613.75;;;8.58;33.28
38227;BME280;24026;49.446;8.576;2022-12-17T11:39:21;101617.38;;;8.57;33.32
38227;BME280;24026;49.446;8.576;2022-12-17T11:42:17;101617.38;;;8.57;33.48
38227;BME280;24026;49.446;8.576;2022-12-17T11:45:30;101610.69;;;8.61;33.34
38227;BME280;24026;49.446;8.576;2022-12-17T11:48:33;101607.22;;;8.60;33.29
38227;BME280;24026;49.446;8.576;2022-12-17T11:52:00;101605.19;;;8.62;33.47
38227;BME280;24026;49.446;8.576;2022-12-17T11:58:14;101609.84;;;8.60;33.39
38227;BME280;24026;49.446;8.576;2022-12-17T12:01:38;101608.84;;;8.61;33.42
38227;BME280;24026;49.446;8.576;2022-12-17T12:07:54;101610.28;;;8.57;34.18
38227;BME280;24026;49.446;8.576;2022-12-17T12:14:08;101612.28;;;8.55;34.14
38227;BME280;24026;49.446;8.576;2022-12-17T12:27:38;101607.00;;;8.62;35.07
38227;BME280;24026;49.446;8.576;2022-12-17T12:30:35;101606.41;;;8.60;34.65
38227;BME280;24026;49.446;8.576;2022-12-17T12:36:27;101603.75;;;8.60;34.55
38227;BME280;24026;49.446;8.576;2022-12-17T12:39:10;101603.34;;;8.63;34.53
38227;BME280;24026;49.446;8.576;2022-12-17T12:51:41;101598.03;;;8.56;34.64
38227;BME280;24026;49.446;8.576;2022-12-17T13:03:07;101594.56;;;8.56;34.39
38227;BME280;24026;49.446;8.576;2022-12-17T13:05:48;101598.84;;;8.57;34.49
38227;BME280;24026;49.446;8.576;2022-12-17T13:08:19;101587.88;;;8.66;34.41
38227;BME280;24026;49.446;8.576;2022-12-17T13:10:41;101592.16;;;8.67;34.32
38227;BME280;24026;49.446;8.576;2022-12-17T13:13:35;101586.25;;;8.65;34.42
38227;BME280;24026;49.446;8.576;2022-12-17T13:16:03;101587.06;;;8.66;34.49
38227;BME280;24026;49.446;8.576;2022-12-17T13:18:37;101576.25;;;8.67;34.33
38227;BME280;24026;49.446;8.576;2022-12-17T13:21:05;101586.03;;;8.67;34.39
38227;BME280;24026;49.446;8.576;2022-12-17T13:23:32;101576.25;;;8.67;34.75
38227;BME280;24026;49.446;8.576;2022-12-17T13:26:17;101583.78;;;8.64;34.63
38227;BME280;24026;49.446;8.576;2022-12-17T13:28:38;101583.59;;;8.65;34.44
38227;BME280;24026;49.446;8.576;2022-12-17T13:31:04;101593.38;;;8.65;34.50
38227;BME280;24026;49.446;8.576;2022-12-17T13:41:15;101587.66;;;8.68;34.69
38227;BME280;24026;49.446;8.576;2022-12-17T13:43:52;101590.72;;;8.65;34.62
38227;BME280;24026;49.446;8.576;2022-12-17T13:46:25;101588.47;;;8.62;35.05
38227;BME280;24026;49.446;8.576;2022-12-17T13:48:57;101578.06;;;8.60;34.83
38227;BME280;24026;49.446;8.576;2022-12-17T13:51:20;101588.88;;;8.59;34.94
38227;BME280;24026;49.446;8.576;2022-12-17T13:53:50;101596.00;;;8.58;35.07
38227;BME280;24026;49.446;8.576;2022-12-17T13:56:11;101591.94;;;8.56;34.96
38227;BME280;24026;49.446;8.576;2022-12-17T13:58:32;101599.88;;;8.56;34.94
38227;BME280;24026;49.446;8.576;2022-12-17T14:01:06;101601.06;;;8.53;35.02
38227;BME280;24026;49.446;8.576;2022-12-17T14:03:27;101601.06;;;8.53;35.02
38227;BME280;24026;49.446;8.576;2022-12-17T14:05:47;101601.06;;;8.53;35.08
38227;BME280;24026;49.446;8.576;2022-12-17T14:08:14;101599.22;;;8.53;34.93
38227;BME280;24026;49.446;8.576;2022-12-17T14:10:35;101607.81;;;8.49;35.19
38227;BME280;24026;49.446;8.576;2022-12-17T14:13:06;101605.97;;;8.49;35.09
38227;BME280;24026;49.446;8.576;2022-12-17T14:15:27;101601.84;;;8.47;35.30
38227;BME280;24026;49.446;8.576;2022-12-17T14:17:49;101609.19;;;8.45;35.08
38227;BME280;24026;49.446;8.576;2022-12-17T14:20:13;101607.56;;;8.44;35.09
38227;BME280;24026;49.446;8.576;2022-12-17T14:22:39;101612.19;;;8.42;35.20
38227;BME280;24026;49.446;8.576;2022-12-17T14:25:02;101610.59;;;8.41;35.17
38227;BME280;24026;49.446;8.576;2022-12-17T14:27:32;101609.56;;;8.42;35.13
38227;BME280;24026;49.446;8.576;2022-12-17T14:29:52;101612.19;;;8.42;35.13
38227;BME280;24026;49.446;8.576;2022-12-17T14:32:32;101608.75;;;8.41;35.19
38227;BME280;24026;49.446;8.576;2022-12-17T14:34:53;101609.56;;;8.42;34.94
38227;BME280;24026;49.446;8.576;2022-12-17T14:37:24;101619.19;;;8.43;35.02
38227;BME280;24026;49.446;8.576;2022-12-17T14:39:45;101619.53;;;8.40;35.15
38227;BME280;24026;49.446;8.576;2022-12-17T14:42:19;101617.91;;;8.39;35.04
38227;BME280;24026;49.446;8.576;2022-12-17T14:44:53;101615.47;;;8.37;35.23
38227;BME280;24026;49.446;8.576;2022-12-17T14:47:19;101623.41;;;8.37;34.96
38227;BME280;24026;49.446;8.576;2022-12-17T14:49:53;101635.00;;;8.36;35.13
38227;BME280;24026;49.446;8.576;2022-12-17T14:52:25;101646.63;;;8.35;34.99
38227;BME280;24026;49.446;8.576;2022-12-17T14:54:45;101637.25;;;8.32;35.02
38227;BME280;24026;49.446;8.576;2022-12-17T14:57:18;101629.28;;;8.32;35.08
38227;BME280;24026;49.446;8.576;2022-12-17T14:59:39;101634.78;;;8.31;34.96
38227;BME280;24026;49.446;8.576;2022-12-17T15:02:04;101640.09;;;8.31;35.01
38227;BME280;24026;49.446;8.576;2022-12-17T15:04:25;101650.06;;;8.29;35.11
38227;BME280;24026;49.446;8.576;2022-12-17T15:06:45;101643.94;;;8.28;35.14
38227;BME280;24026;49.446;8.576;2022-12-17T15:09:06;101639.66;;;8.27;35.17
38227;BME280;24026;49.446;8.576;2022-12-17T15:11:26;101645.56;;;8.29;34.96
38227;BME280;24026;49.446;8.576;2022-12-17T15:13:47;101645.97;;;8.26;35.13
38227;BME280;24026;49.446;8.576;2022-12-17T15:16:08;101640.66;;;8.26;35.04
38227;BME280;24026;49.446;8.576;2022-12-17T15:18:29;101646.78;;;8.27;35.06
38227;BME280;24026;49.446;8.576;2022-12-17T15:20:50;101648.00;;;8.24;34.87